createdAt,value
2018-11-07T00:02:00.123Z,11.67
2018-11-07T00:04:25.257Z,11.70
2018-11-07T00:06:50.365Z,11.75
2018-11-07T00:09:15.453Z,11.81
2018-11-07T00:11:40.627Z,11.85
2018-11-07T00:14:05.890Z,11.64
2018-11-07T00:16:30.924Z,11.80
2018-11-07T00:18:56.078Z,11.47
2018-11-07T00:21:21.174Z,11.52
2018-11-07T00:26:41.346Z,11.59
2018-11-07T00:29:06.572Z,11.43
2018-11-07T00:31:31.677Z,11.26
2018-11-07T00:33:56.791Z,11.27
2018-11-07T00:36:21.898Z,11.54
2018-11-07T00:38:47.088Z,11.39
2018-11-07T00:41:12.187Z,11.27
2018-11-07T00:43:37.318Z,11.27
2018-11-07T00:46:02.414Z,11.20
2018-11-07T00:48:27.510Z,11.39
2018-11-07T00:50:52.661Z,11.40
2018-11-07T00:53:17.761Z,11.44
2018-11-07T00:55:42.953Z,11.43
2018-11-07T00:58:08.153Z,11.20
2018-11-07T01:00:33.190Z,11.31
2018-11-07T01:03:09.828Z,11.39
2018-11-07T01:05:34.953Z,11.28
2018-11-07T01:08:00.064Z,11.10
2018-11-07T01:10:25.137Z,11.11
2018-11-07T01:12:50.236Z,11.18
2018-11-07T01:15:15.467Z,11.14
2018-11-07T01:17:59.537Z,11.13
2018-11-07T01:20:24.636Z,10.68
2018-11-07T01:22:49.763Z,11.07
2018-11-07T01:25:14.954Z,11.01
2018-11-07T01:27:40.041Z,10.90
2018-11-07T01:30:05.710Z,10.82
2018-11-07T01:32:30.805Z,10.93
2018-11-07T01:34:55.927Z,10.96
2018-11-07T01:37:21.026Z,11.08
2018-11-07T01:39:46.145Z,11.22
2018-11-07T01:42:11.416Z,11.02
2018-11-07T01:44:36.452Z,10.76
2018-11-07T01:47:01.574Z,10.71
2018-11-07T01:49:26.713Z,10.73
2018-11-07T01:51:51.871Z,10.51
2018-11-07T01:54:35.971Z,10.71
2018-11-07T01:57:01.070Z,10.77
2018-11-07T01:59:26.212Z,10.72
2018-11-07T02:01:51.319Z,10.85
2018-11-07T02:04:16.437Z,10.98
2018-11-07T02:06:41.571Z,10.63
2018-11-07T02:09:09.306Z,10.77
2018-11-07T02:11:34.402Z,10.57
2018-11-07T02:13:59.541Z,10.62
2018-11-07T02:16:24.679Z,10.75
2018-11-07T02:18:49.794Z,10.59
2018-11-07T02:21:14.884Z,10.31
2018-11-07T02:23:40.031Z,10.17
2018-11-07T02:26:05.169Z,10.36
2018-11-07T02:28:30.314Z,10.14
2018-11-07T02:30:55.416Z,10.09
2018-11-07T02:33:20.521Z,10.36
2018-11-07T02:35:45.604Z,10.42
2018-11-07T02:43:42.772Z,10.27
2018-11-07T02:46:08.596Z,10.02
2018-11-07T02:48:33.688Z,10.04
2018-11-07T02:50:58.787Z,9.95
2018-11-07T02:53:23.934Z,10.06
2018-11-07T02:55:48.992Z,10.06
2018-11-07T02:58:14.118Z,10.15
2018-11-07T03:00:39.201Z,10.06
2018-11-07T03:03:23.325Z,10.06
2018-11-07T03:05:48.497Z,10.27
2018-11-07T03:08:13.804Z,10.47
2018-11-07T03:10:38.946Z,10.50
2018-11-07T03:13:03.996Z,10.61
2018-11-07T03:15:29.105Z,10.51
2018-11-07T03:17:54.169Z,10.40
2018-11-07T03:20:19.275Z,10.33
2018-11-07T03:22:44.367Z,10.47
2018-11-07T03:25:09.483Z,10.49
2018-11-07T03:27:34.685Z,10.52
2018-11-07T03:32:36.694Z,10.60
2018-11-07T03:35:01.786Z,10.56
2018-11-07T03:37:26.867Z,10.64
2018-11-07T03:39:52.168Z,10.55
2018-11-07T03:42:17.068Z,10.56
2018-11-07T03:44:42.213Z,10.67
2018-11-07T03:47:07.443Z,10.65
2018-11-07T03:49:32.512Z,10.44
2018-11-07T03:51:57.584Z,10.54
2018-11-07T03:56:59.702Z,10.57
2018-11-07T03:59:24.782Z,10.50
2018-11-07T04:01:49.962Z,10.64
2018-11-07T04:04:15.008Z,10.54
2018-11-07T04:06:40.183Z,10.44
2018-11-07T04:09:07.648Z,10.28
2018-11-07T04:11:51.749Z,10.24
2018-11-07T04:14:16.920Z,10.29
2018-11-07T04:16:42.048Z,10.27
2018-11-07T04:19:07.763Z,9.99
2018-11-07T04:21:32.887Z,10.05
2018-11-07T04:24:16.935Z,9.77
2018-11-07T04:27:00.999Z,9.67
2018-11-07T04:29:26.100Z,9.68
2018-11-07T04:31:51.180Z,9.70
2018-11-07T04:34:35.270Z,9.71
2018-11-07T04:37:00.422Z,9.69
2018-11-07T04:39:25.675Z,9.46
2018-11-07T04:41:50.779Z,9.16
2018-11-07T04:44:15.948Z,9.32
2018-11-07T04:46:41.049Z,9.40
2018-11-07T04:49:06.305Z,9.39
2018-11-07T04:51:31.390Z,9.44
2018-11-07T04:53:56.480Z,9.37
2018-11-07T04:56:21.622Z,9.41
2018-11-07T04:58:46.695Z,9.41
2018-11-07T05:01:11.769Z,9.51
2018-11-07T05:03:37.177Z,9.24
2018-11-07T05:06:02.260Z,9.37
2018-11-07T05:08:27.439Z,9.16
2018-11-07T05:10:52.548Z,9.03
2018-11-07T05:13:17.647Z,8.95
2018-11-07T05:15:42.754Z,8.61
2018-11-07T05:18:07.837Z,8.72
2018-11-07T05:20:32.957Z,8.65
2018-11-07T05:22:58.087Z,8.63
2018-11-07T05:33:12.110Z,8.68
2018-11-07T05:35:37.271Z,8.74
2018-11-07T05:38:02.379Z,8.72
2018-11-07T05:40:27.532Z,8.45
2018-11-07T05:42:52.697Z,8.65
2018-11-07T05:45:17.828Z,8.39
2018-11-07T05:47:42.933Z,8.61
2018-11-07T05:50:09.220Z,8.65
2018-11-07T05:52:34.349Z,8.67
2018-11-07T05:55:07.762Z,8.57
2018-11-07T05:57:32.919Z,8.33
2018-11-07T05:59:57.986Z,8.57
2018-11-07T06:02:23.157Z,8.62
2018-11-07T06:04:48.225Z,8.62
2018-11-07T06:07:13.314Z,8.61
2018-11-07T06:09:38.445Z,8.51
2018-11-07T06:12:03.547Z,8.51
2018-11-07T06:14:28.692Z,8.56
2018-11-07T06:16:53.775Z,8.69
2018-11-07T06:19:18.831Z,8.80
2018-11-07T06:21:43.973Z,8.69
2018-11-07T06:24:09.110Z,8.82
2018-11-07T06:26:34.253Z,8.80
2018-11-07T06:28:59.328Z,8.85
2018-11-07T06:31:24.417Z,8.83
2018-11-07T06:33:49.554Z,8.89
2018-11-07T06:36:14.608Z,8.91
2018-11-07T06:38:39.741Z,8.75
2018-11-07T06:41:04.824Z,8.86
2018-11-07T06:46:08.970Z,9.01
2018-11-07T06:48:34.084Z,9.07
2018-11-07T06:50:59.239Z,9.26
2018-11-07T06:56:02.796Z,9.33
2018-11-07T06:58:28.866Z,9.20
2018-11-07T07:00:53.939Z,8.91
2018-11-07T07:03:19.018Z,9.03
2018-11-07T07:05:44.113Z,9.26
2018-11-07T07:08:09.215Z,9.32
2018-11-07T07:10:34.296Z,9.41
2018-11-07T07:12:59.392Z,9.36
2018-11-07T07:15:24.507Z,9.32
2018-11-07T07:17:49.609Z,9.45
2018-11-07T07:22:54.263Z,9.58
2018-11-07T07:25:19.379Z,9.54
2018-11-07T07:27:45.377Z,9.75
2018-11-07T07:30:13.237Z,9.81
2018-11-07T07:32:57.284Z,9.94
2018-11-07T07:35:22.306Z,9.93
2018-11-07T07:37:47.440Z,9.55
2018-11-07T07:40:31.534Z,10.03
2018-11-07T07:42:56.653Z,9.92
2018-11-07T07:45:21.819Z,10.02
2018-11-07T07:47:47.134Z,10.09
2018-11-07T07:50:30.962Z,10.14
2018-11-07T07:52:56.127Z,10.19
2018-11-07T07:55:21.210Z,10.18
2018-11-07T07:57:46.256Z,10.27
2018-11-07T08:00:21.920Z,10.27
2018-11-07T08:02:48.146Z,10.32
2018-11-07T08:05:13.339Z,10.15
2018-11-07T08:07:38.551Z,10.16
2018-11-07T08:10:03.669Z,10.30
2018-11-07T08:12:28.787Z,10.54
2018-11-07T08:14:53.898Z,10.60
2018-11-07T08:17:19.026Z,10.78
2018-11-07T08:19:55.623Z,10.93
2018-11-07T08:22:20.724Z,10.71
2018-11-07T08:24:45.877Z,10.92
2018-11-07T08:27:10.968Z,10.77
2018-11-07T08:29:55.047Z,10.86
2018-11-07T08:32:32.762Z,11.05
2018-11-07T08:35:17.091Z,10.92
2018-11-07T08:37:43.180Z,10.95
2018-11-07T08:42:47.643Z,11.21
2018-11-07T08:45:13.571Z,11.30
2018-11-07T08:47:38.735Z,11.33
2018-11-07T08:50:03.951Z,11.23
2018-11-07T08:52:29.055Z,11.38
2018-11-07T08:54:54.232Z,11.89
2018-11-07T08:57:19.312Z,11.78
2018-11-07T08:59:44.465Z,11.56
2018-11-07T09:02:28.500Z,11.98
2018-11-07T09:04:53.606Z,11.97
2018-11-07T09:07:18.740Z,12.39
2018-11-07T09:09:44.038Z,12.27
2018-11-07T09:12:09.231Z,12.60
2018-11-07T09:14:34.317Z,12.70
2018-11-07T09:16:59.441Z,12.55
2018-11-07T09:19:43.523Z,12.92
2018-11-07T09:22:08.654Z,12.90
2018-11-07T09:24:33.880Z,13.13
2018-11-07T09:27:17.880Z,13.29
2018-11-07T09:29:42.968Z,13.32
2018-11-07T09:32:08.076Z,13.42
2018-11-07T09:34:33.232Z,13.68
2018-11-07T09:36:58.329Z,13.81
2018-11-07T09:39:23.445Z,13.81
2018-11-07T09:41:48.660Z,13.88
2018-11-07T09:44:13.838Z,14.40
2018-11-07T09:46:39.171Z,14.25
2018-11-07T09:49:04.301Z,14.20
2018-11-07T09:51:29.712Z,14.38
2018-11-07T09:53:54.993Z,14.54
2018-11-07T09:56:20.014Z,14.65
2018-11-07T09:58:45.157Z,14.52
2018-11-07T10:01:10.282Z,14.78
2018-11-07T10:03:35.547Z,14.51
2018-11-07T10:06:00.690Z,14.68
2018-11-07T10:08:27.485Z,14.77
2018-11-07T10:10:52.616Z,15.24
2018-11-07T10:13:36.658Z,15.02
2018-11-07T10:16:01.795Z,14.92
2018-11-07T10:18:26.972Z,15.50
2018-11-07T10:20:52.077Z,15.68
2018-11-07T10:23:17.226Z,15.96
2018-11-07T10:25:42.320Z,16.25
2018-11-07T10:28:07.842Z,16.18
2018-11-07T10:30:32.643Z,15.97
2018-11-07T10:32:57.730Z,15.61
2018-11-07T10:35:22.921Z,15.99
2018-11-07T10:38:07.160Z,16.26
2018-11-07T10:40:51.045Z,16.56
2018-11-07T10:43:16.182Z,17.64
2018-11-07T10:45:41.335Z,18.37
2018-11-07T10:48:06.750Z,18.46
2018-11-07T10:50:31.866Z,19.19
2018-11-07T10:52:56.986Z,18.40
2018-11-07T10:55:22.084Z,19.22
2018-11-07T10:57:47.294Z,19.42
2018-11-07T11:00:32.286Z,20.57
2018-11-07T11:03:16.148Z,21.56
2018-11-07T11:05:41.371Z,22.17
2018-11-07T11:08:06.650Z,22.40
2018-11-07T11:10:31.798Z,23.59
2018-11-07T11:12:56.891Z,24.55
2018-11-07T11:15:22.051Z,22.93
2018-11-07T11:17:47.178Z,24.71
2018-11-07T11:20:13.825Z,27.26
2018-11-07T11:22:38.944Z,26.88
2018-11-07T11:25:04.185Z,27.86
2018-11-07T11:27:29.396Z,26.97
2018-11-07T11:30:13.387Z,27.28
2018-11-07T11:32:38.823Z,29.02
2018-11-07T11:35:03.958Z,28.89
2018-11-07T11:37:28.962Z,29.41
2018-11-07T11:39:54.127Z,30.34
2018-11-07T11:42:19.245Z,31.42
2018-11-07T11:44:44.383Z,30.96
2018-11-07T11:47:09.490Z,31.69
2018-11-07T11:49:53.566Z,31.99
2018-11-07T11:55:13.711Z,32.55
2018-11-07T11:57:57.766Z,32.94
2018-11-07T12:00:41.838Z,32.96
2018-11-07T12:03:06.975Z,33.84
2018-11-07T12:05:51.066Z,30.24
2018-11-07T12:08:35.277Z,31.29
2018-11-07T12:11:00.360Z,33.55
2018-11-07T12:13:44.562Z,33.21
2018-11-07T12:16:09.769Z,34.13
2018-11-07T12:18:53.878Z,34.50
2018-11-07T12:21:19.118Z,34.30
2018-11-07T12:24:03.096Z,35.37
2018-11-07T12:26:28.238Z,35.69
2018-11-07T12:28:53.368Z,36.50
2018-11-07T12:31:18.497Z,35.24
2018-11-07T12:33:43.710Z,35.13
2018-11-07T12:36:27.855Z,34.20
2018-11-07T12:38:52.939Z,35.95
2018-11-07T12:44:13.367Z,35.96
2018-11-07T12:46:38.596Z,36.43
2018-11-07T12:49:22.683Z,35.72
2018-11-07T12:51:47.781Z,37.24
2018-11-07T12:54:12.846Z,38.03
2018-11-07T12:56:37.969Z,38.41
2018-11-07T12:59:03.084Z,37.80
2018-11-07T13:01:47.183Z,38.09
2018-11-07T13:04:12.268Z,38.84
2018-11-07T13:06:39.142Z,37.01
2018-11-07T13:09:23.963Z,37.31
2018-11-07T13:11:49.077Z,36.78
2018-11-07T13:14:33.184Z,37.22
2018-11-07T13:16:58.682Z,37.40
2018-11-07T13:19:42.772Z,37.20
2018-11-07T13:22:26.941Z,36.76
2018-11-07T13:24:51.924Z,34.22
2018-11-07T13:27:17.031Z,33.36
2018-11-07T13:29:42.119Z,34.92
2018-11-07T13:32:26.320Z,36.68
2018-11-07T13:34:51.450Z,35.64
2018-11-07T13:37:35.747Z,36.21
2018-11-07T13:40:31.898Z,32.58
2018-11-07T13:42:57.123Z,31.20
2018-11-07T13:45:41.150Z,31.16
2018-11-07T13:48:17.877Z,33.69
2018-11-07T13:50:42.987Z,35.51
2018-11-07T13:53:08.144Z,37.06
2018-11-07T13:55:33.146Z,33.77
2018-11-07T13:58:17.218Z,30.95
2018-11-07T14:03:18.507Z,29.16
2018-11-07T14:05:43.741Z,29.15
2018-11-07T14:08:08.721Z,29.87
2018-11-07T14:10:52.773Z,33.83
2018-11-07T14:13:17.905Z,34.63
2018-11-07T14:16:02.055Z,30.87
2018-11-07T14:18:27.036Z,29.63
2018-11-07T14:20:52.109Z,28.80
2018-11-07T14:23:17.169Z,28.74
2018-11-07T14:25:42.221Z,28.67
2018-11-07T14:28:08.120Z,29.97
2018-11-07T14:30:33.047Z,29.91
2018-11-07T14:33:09.559Z,28.35
2018-11-07T14:35:53.654Z,28.06
2018-11-07T14:38:18.775Z,27.80
2018-11-07T14:40:43.857Z,27.29
2018-11-07T14:43:08.996Z,27.37
2018-11-07T14:45:34.093Z,27.05
2018-11-07T14:47:59.175Z,27.20
2018-11-07T14:50:36.886Z,27.23
2018-11-07T14:53:01.995Z,26.60
2018-11-07T14:55:27.115Z,26.35
2018-11-07T14:57:52.197Z,25.99
2018-11-07T15:00:17.725Z,25.75
2018-11-07T15:02:43.712Z,25.40
2018-11-07T15:05:10.312Z,25.15
2018-11-07T15:07:35.488Z,25.19
2018-11-07T15:10:00.811Z,24.68
2018-11-07T15:12:25.931Z,24.95
2018-11-07T15:14:51.031Z,25.08
2018-11-07T15:17:16.291Z,24.36
2018-11-07T15:19:41.245Z,23.97
2018-11-07T15:22:06.726Z,23.61
2018-11-07T15:24:50.879Z,23.27
2018-11-07T15:27:34.973Z,23.06
2018-11-07T15:30:00.067Z,22.69
2018-11-07T15:32:25.184Z,22.66
2018-11-07T15:35:09.733Z,22.32
2018-11-07T15:37:34.809Z,22.03
2018-11-07T15:39:59.939Z,21.84
2018-11-07T15:42:25.045Z,21.74
2018-11-07T15:45:02.861Z,21.76
2018-11-07T15:47:27.963Z,21.42
2018-11-07T15:50:11.812Z,21.35
2018-11-07T15:52:36.953Z,21.08
2018-11-07T15:55:02.023Z,21.01
2018-11-07T15:57:27.123Z,21.04
2018-11-07T15:59:52.272Z,20.49
2018-11-07T16:02:17.348Z,20.25
2018-11-07T16:04:42.437Z,20.26
2018-11-07T16:07:07.531Z,20.12
2018-11-07T16:09:32.668Z,20.29
2018-11-07T16:11:57.773Z,20.19
2018-11-07T16:14:22.917Z,20.08
2018-11-07T16:16:48.014Z,20.00
2018-11-07T16:19:13.129Z,19.91
2018-11-07T16:21:38.238Z,19.92
2018-11-07T16:24:03.469Z,19.84
2018-11-07T16:26:28.562Z,19.61
2018-11-07T16:28:53.724Z,19.66
2018-11-07T16:31:18.852Z,19.54
2018-11-07T16:34:02.902Z,19.45
2018-11-07T16:36:28.031Z,19.55
2018-11-07T16:38:53.143Z,19.17
2018-11-07T16:41:18.454Z,19.43
2018-11-07T16:43:43.385Z,19.32
2018-11-07T16:46:08.524Z,19.18
2018-11-07T16:48:33.741Z,18.88
2018-11-07T16:50:58.810Z,18.96
2018-11-07T16:53:24.047Z,19.01
2018-11-07T16:55:49.141Z,19.01
2018-11-07T16:58:14.251Z,18.87
2018-11-07T17:00:39.398Z,19.09
2018-11-07T17:03:04.523Z,18.86
2018-11-07T17:05:29.660Z,18.71
2018-11-07T17:07:54.958Z,18.80
2018-11-07T17:10:20.084Z,18.71
2018-11-07T17:12:45.253Z,18.48
2018-11-07T17:15:10.317Z,18.64
2018-11-07T17:17:54.436Z,18.62
2018-11-07T17:20:19.575Z,18.50
2018-11-07T17:22:45.074Z,18.46
2018-11-07T17:25:12.432Z,18.33
2018-11-07T17:27:56.518Z,18.45
2018-11-07T17:30:21.648Z,18.44
2018-11-07T17:32:46.780Z,18.31
2018-11-07T17:35:30.859Z,18.31
2018-11-07T17:37:56.002Z,18.21
2018-11-07T17:40:22.711Z,18.24
2018-11-07T17:42:48.090Z,18.17
2018-11-07T17:45:32.787Z,18.17
2018-11-07T17:47:57.947Z,18.17
2018-11-07T17:50:23.871Z,18.13
2018-11-07T17:53:07.928Z,17.99
2018-11-07T17:55:33.074Z,18.03
2018-11-07T17:57:58.364Z,18.01
2018-11-07T18:00:32.548Z,17.74
2018-11-07T18:03:16.671Z,17.96
2018-11-07T18:05:41.804Z,17.91
2018-11-07T18:08:06.913Z,17.94
2018-11-07T18:10:32.076Z,17.77
2018-11-07T18:12:57.205Z,17.71
2018-11-07T18:18:01.669Z,17.39
2018-11-07T18:20:26.773Z,17.47
2018-11-07T18:22:51.957Z,17.29
2018-11-07T18:25:17.799Z,17.29
2018-11-07T18:28:01.947Z,17.07
2018-11-07T18:30:27.080Z,17.12
2018-11-07T18:33:03.881Z,17.20
2018-11-07T18:35:29.029Z,17.16
2018-11-07T18:37:54.161Z,16.82
2018-11-07T18:40:20.448Z,16.95
2018-11-07T18:42:45.675Z,16.54
2018-11-07T18:45:11.749Z,16.49
2018-11-07T18:47:55.804Z,16.29
2018-11-07T18:50:21.304Z,16.31
2018-11-07T18:52:46.321Z,16.17
2018-11-07T18:55:12.758Z,16.25
2018-11-07T18:57:37.922Z,16.26
2018-11-07T19:00:03.033Z,15.76
2018-11-07T19:02:28.286Z,15.86
2018-11-07T19:04:53.507Z,15.79
2018-11-07T19:07:18.657Z,16.05
2018-11-07T19:09:43.821Z,15.51
2018-11-07T19:12:08.968Z,15.68
2018-11-07T19:14:34.121Z,15.55
2018-11-07T19:16:59.244Z,15.63
2018-11-07T19:19:24.404Z,15.47
2018-11-07T19:21:49.531Z,15.41
2018-11-07T19:24:14.670Z,15.29
2018-11-07T19:26:39.898Z,15.26
2018-11-07T19:29:04.989Z,15.27
2018-11-07T19:31:30.232Z,15.12
2018-11-07T19:36:31.807Z,14.98
2018-11-07T19:38:56.943Z,14.99
2018-11-07T19:41:22.071Z,14.85
2018-11-07T19:43:47.237Z,14.69
2018-11-07T19:46:12.415Z,14.87
2018-11-07T19:48:37.588Z,14.74
2018-11-07T19:51:02.727Z,14.53
2018-11-07T19:53:27.920Z,14.70
2018-11-07T19:55:53.054Z,14.65
2018-11-07T19:58:18.193Z,14.24
2018-11-07T20:03:19.675Z,13.82
2018-11-07T20:05:44.868Z,14.14
2018-11-07T20:08:29.015Z,14.24
2018-11-07T20:10:54.170Z,14.49
2018-11-07T20:13:38.276Z,14.48
2018-11-07T20:16:03.408Z,14.33
2018-11-07T20:18:28.545Z,14.46
2018-11-07T20:20:53.692Z,14.21
2018-11-07T20:23:18.939Z,14.26
2018-11-07T20:26:02.926Z,14.26
2018-11-07T20:28:28.104Z,14.13
2018-11-07T20:30:53.395Z,14.02
2018-11-07T20:33:18.531Z,14.16
2018-11-07T20:35:43.826Z,13.98
2018-11-07T20:38:08.847Z,14.14
2018-11-07T20:40:34.014Z,13.84
2018-11-07T20:42:59.150Z,13.98
2018-11-07T20:45:24.305Z,13.83
2018-11-07T20:47:49.451Z,13.73
2018-11-07T20:50:16.047Z,13.50
2018-11-07T20:52:41.765Z,13.42
2018-11-07T20:55:07.021Z,13.68
2018-11-07T20:57:32.135Z,13.57
2018-11-07T21:02:52.731Z,13.47
2018-11-07T21:05:17.879Z,13.54
2018-11-07T21:12:56.187Z,13.45
2018-11-07T21:15:21.906Z,13.28
2018-11-07T21:17:47.320Z,13.47
2018-11-07T21:20:12.454Z,13.22
2018-11-07T21:22:37.622Z,13.42
2018-11-07T21:25:02.741Z,13.12
2018-11-07T21:27:27.883Z,12.66
2018-11-07T21:29:53.001Z,12.76
2018-11-07T21:32:18.206Z,13.03
2018-11-07T21:34:43.399Z,12.99
2018-11-07T21:37:27.501Z,13.01
2018-11-07T21:40:11.878Z,12.86
2018-11-07T21:42:37.075Z,12.67
2018-11-07T21:45:02.325Z,12.65
2018-11-07T21:47:27.448Z,12.63
2018-11-07T21:49:52.659Z,12.43
2018-11-07T21:52:36.822Z,12.37
2018-11-07T21:55:01.950Z,12.65
2018-11-07T21:57:27.161Z,12.58
2018-11-07T21:59:52.299Z,12.51
2018-11-07T22:02:17.452Z,12.42
2018-11-07T22:04:42.548Z,12.26
2018-11-07T22:07:26.770Z,12.19
2018-11-07T22:09:51.908Z,12.34
2018-11-07T22:12:17.089Z,12.04
2018-11-07T22:14:42.466Z,12.02
2018-11-07T22:17:07.519Z,12.03
2018-11-07T22:19:32.599Z,12.04
2018-11-07T22:21:57.720Z,12.04
2018-11-07T22:24:22.912Z,12.23
2018-11-07T22:26:47.961Z,12.06
2018-11-07T22:29:13.147Z,11.93
2018-11-07T22:34:33.781Z,11.96
2018-11-07T22:36:58.992Z,12.14
2018-11-07T22:39:24.111Z,11.91
2018-11-07T22:41:49.255Z,12.04
2018-11-07T22:44:33.338Z,11.85
2018-11-07T22:47:17.413Z,11.84
2018-11-07T22:49:42.498Z,11.91
2018-11-07T22:52:07.819Z,11.75
2018-11-07T22:54:32.949Z,11.50
2018-11-07T22:56:58.055Z,11.50
2018-11-07T22:59:23.176Z,11.71
2018-11-07T23:01:48.283Z,11.80
2018-11-07T23:04:13.404Z,11.52
2018-11-07T23:06:39.247Z,11.40
2018-11-07T23:09:05.240Z,11.50
2018-11-07T23:11:30.510Z,11.67
2018-11-07T23:13:55.860Z,11.66
2018-11-07T23:16:20.936Z,11.53
2018-11-07T23:18:46.060Z,11.45
2018-11-07T23:21:11.145Z,11.49
2018-11-07T23:23:36.308Z,11.32
2018-11-07T23:26:01.407Z,11.28
2018-11-07T23:28:26.524Z,11.41
2018-11-07T23:30:51.652Z,11.56
2018-11-07T23:33:16.770Z,11.41
2018-11-07T23:35:41.896Z,11.06
2018-11-07T23:38:07.012Z,11.27
2018-11-07T23:40:32.195Z,11.38
2018-11-07T23:42:57.305Z,11.50
2018-11-07T23:45:22.472Z,11.46
2018-11-07T23:47:50.111Z,11.49
2018-11-07T23:50:15.248Z,11.57
2018-11-07T23:52:59.093Z,11.32
2018-11-07T23:55:24.799Z,11.26
2018-11-07T23:57:50.718Z,11.58
